sensor_id;sensor_type;location;lat;lon;timestamp;P1;durP1;ratioP1;P2;durP2;ratioP2
19679;SDS011;9989;48.962;9.182;2023-02-01T00:01:14;8.13;;;2.90;;
19679;SDS011;9989;48.962;9.182;2023-02-01T00:03:40;7.63;;;2.90;;
19679;SDS011;9989;48.962;9.182;2023-02-01T00:06:05;6.97;;;2.93;;
19679;SDS011;9989;48.962;9.182;2023-02-01T00:08:31;6.70;;;2.73;;
19679;SDS011;9989;48.962;9.182;2023-02-01T00:10:57;6.07;;;3.07;;
19679;SDS011;9989;48.962;9.182;2023-02-01T00:13:24;6.13;;;2.40;;
19679;SDS011;9989;48.962;9.182;2023-02-01T00:15:51;5.67;;;2.50;;
19679;SDS011;9989;48.962;9.182;2023-02-01T00:18:16;5.90;;;2.50;;
19679;SDS011;9989;48.962;9.182;2023-02-01T00:20:45;6.23;;;2.90;;
19679;SDS011;9989;48.962;9.182;2023-02-01T00:23:11;5.80;;;2.70;;
19679;SDS011;9989;48.962;9.182;2023-02-01T00:25:37;6.17;;;2.43;;
19679;SDS011;9989;48.962;9.182;2023-02-01T00:28:03;6.27;;;3.00;;
19679;SDS011;9989;48.962;9.182;2023-02-01T00:30:28;6.10;;;2.63;;
19679;SDS011;9989;48.962;9.182;2023-02-01T00:32:54;9.70;;;3.07;;
19679;SDS011;9989;48.962;9.182;2023-02-01T00:35:19;6.80;;;3.20;;
19679;SDS011;9989;48.962;9.182;2023-02-01T00:37:45;7.20;;;3.20;;
19679;SDS011;9989;48.962;9.182;2023-02-01T00:40:11;9.73;;;3.67;;
19679;SDS011;9989;48.962;9.182;2023-02-01T00:42:37;7.97;;;3.70;;
19679;SDS011;9989;48.962;9.182;2023-02-01T00:45:02;10.07;;;3.30;;
19679;SDS011;9989;48.962;9.182;2023-02-01T00:47:28;7.13;;;3.17;;
19679;SDS011;9989;48.962;9.182;2023-02-01T00:49:55;7.27;;;3.43;;
19679;SDS011;9989;48.962;9.182;2023-02-01T00:52:20;7.80;;;3.10;;
19679;SDS011;9989;48.962;9.182;2023-02-01T00:54:46;7.10;;;3.00;;
19679;SDS011;9989;48.962;9.182;2023-02-01T00:57:12;6.57;;;3.20;;
19679;SDS011;9989;48.962;9.182;2023-02-01T00:59:37;7.33;;;2.93;;
19679;SDS011;9989;48.962;9.182;2023-02-01T01:02:04;7.37;;;3.17;;
19679;SDS011;9989;48.962;9.182;2023-02-01T01:04:29;7.33;;;2.70;;
19679;SDS011;9989;48.962;9.182;2023-02-01T01:06:55;7.47;;;2.70;;
19679;SDS011;9989;48.962;9.182;2023-02-01T01:09:20;5.77;;;2.60;;
19679;SDS011;9989;48.962;9.182;2023-02-01T01:11:46;6.63;;;2.90;;
19679;SDS011;9989;48.962;9.182;2023-02-01T01:14:11;7.50;;;3.37;;
19679;SDS011;9989;48.962;9.182;2023-02-01T01:16:37;6.03;;;2.53;;
19679;SDS011;9989;48.962;9.182;2023-02-01T01:19:03;6.57;;;2.97;;
19679;SDS011;9989;48.962;9.182;2023-02-01T01:21:29;5.67;;;2.70;;
19679;SDS011;9989;48.962;9.182;2023-02-01T01:23:55;7.43;;;2.70;;
19679;SDS011;9989;48.962;9.182;2023-02-01T01:26:21;6.90;;;2.67;;
19679;SDS011;9989;48.962;9.182;2023-02-01T01:28:49;6.37;;;2.90;;
19679;SDS011;9989;48.962;9.182;2023-02-01T01:31:17;6.73;;;3.10;;
19679;SDS011;9989;48.962;9.182;2023-02-01T01:33:43;5.83;;;2.77;;
19679;SDS011;9989;48.962;9.182;2023-02-01T01:36:12;6.30;;;2.70;;
19679;SDS011;9989;48.962;9.182;2023-02-01T01:38:38;9.23;;;2.93;;
19679;SDS011;9989;48.962;9.182;2023-02-01T01:41:05;6.93;;;2.60;;
19679;SDS011;9989;48.962;9.182;2023-02-01T01:46:16;5.93;;;2.50;;
19679;SDS011;9989;48.962;9.182;2023-02-01T01:48:48;6.60;;;2.60;;
19679;SDS011;9989;48.962;9.182;2023-02-01T01:51:19;5.07;;;2.30;;
19679;SDS011;9989;48.962;9.182;2023-02-01T01:53:51;6.63;;;2.90;;
19679;SDS011;9989;48.962;9.182;2023-02-01T01:56:22;5.70;;;2.40;;
19679;SDS011;9989;48.962;9.182;2023-02-01T01:58:49;8.43;;;2.90;;
19679;SDS011;9989;48.962;9.182;2023-02-01T02:01:15;7.07;;;2.93;;
19679;SDS011;9989;48.962;9.182;2023-02-01T02:03:42;8.73;;;2.60;;
19679;SDS011;9989;48.962;9.182;2023-02-01T02:06:17;5.97;;;2.63;;
19679;SDS011;9989;48.962;9.182;2023-02-01T02:08:45;6.77;;;3.10;;
19679;SDS011;9989;48.962;9.182;2023-02-01T02:11:12;7.47;;;3.03;;
19679;SDS011;9989;48.962;9.182;2023-02-01T02:13:42;6.00;;;2.70;;
19679;SDS011;9989;48.962;9.182;2023-02-01T02:18:57;6.67;;;2.77;;
19679;SDS011;9989;48.962;9.182;2023-02-01T02:24:31;7.27;;;2.80;;
19679;SDS011;9989;48.962;9.182;2023-02-01T02:27:13;7.17;;;3.20;;
19679;SDS011;9989;48.962;9.182;2023-02-01T02:29:54;6.60;;;2.93;;
19679;SDS011;9989;48.962;9.182;2023-02-01T02:38:33;7.73;;;3.27;;
19679;SDS011;9989;48.962;9.182;2023-02-01T02:41:09;6.87;;;2.63;;
19679;SDS011;9989;48.962;9.182;2023-02-01T02:44:10;6.90;;;2.97;;
19679;SDS011;9989;48.962;9.182;2023-02-01T02:47:13;5.67;;;2.67;;
19679;SDS011;9989;48.962;9.182;2023-02-01T02:49:54;6.60;;;3.13;;
19679;SDS011;9989;48.962;9.182;2023-02-01T02:52:55;6.57;;;2.80;;
19679;SDS011;9989;48.962;9.182;2023-02-01T02:55:47;7.53;;;2.87;;
19679;SDS011;9989;48.962;9.182;2023-02-01T02:58:15;9.13;;;3.03;;
19679;SDS011;9989;48.962;9.182;2023-02-01T03:01:03;5.53;;;2.40;;
19679;SDS011;9989;48.962;9.182;2023-02-01T03:03:48;6.80;;;2.70;;
19679;SDS011;9989;48.962;9.182;2023-02-01T03:06:33;6.40;;;2.80;;
19679;SDS011;9989;48.962;9.182;2023-02-01T03:09:00;5.77;;;2.40;;
19679;SDS011;9989;48.962;9.182;2023-02-01T03:11:28;6.57;;;2.73;;
19679;SDS011;9989;48.962;9.182;2023-02-01T03:14:15;6.10;;;2.83;;
19679;SDS011;9989;48.962;9.182;2023-02-01T03:19:25;6.30;;;2.50;;
19679;SDS011;9989;48.962;9.182;2023-02-01T03:22:04;5.53;;;2.53;;
19679;SDS011;9989;48.962;9.182;2023-02-01T03:24:37;5.93;;;2.47;;
19679;SDS011;9989;48.962;9.182;2023-02-01T03:29:45;5.53;;;2.07;;
19679;SDS011;9989;48.962;9.182;2023-02-01T03:32:32;5.60;;;2.20;;
19679;SDS011;9989;48.962;9.182;2023-02-01T03:35:19;5.23;;;2.30;;
19679;SDS011;9989;48.962;9.182;2023-02-01T03:37:53;6.43;;;2.87;;
19679;SDS011;9989;48.962;9.182;2023-02-01T03:40:26;4.73;;;2.03;;
19679;SDS011;9989;48.962;9.182;2023-02-01T03:42:56;4.93;;;2.17;;
19679;SDS011;9989;48.962;9.182;2023-02-01T03:45:27;5.27;;;2.43;;
19679;SDS011;9989;48.962;9.182;2023-02-01T03:47:59;4.97;;;2.30;;
19679;SDS011;9989;48.962;9.182;2023-02-01T03:50:27;5.70;;;2.40;;
19679;SDS011;9989;48.962;9.182;2023-02-01T03:52:55;6.37;;;2.43;;
19679;SDS011;9989;48.962;9.182;2023-02-01T03:55:24;4.90;;;2.40;;
19679;SDS011;9989;48.962;9.182;2023-02-01T03:57:57;5.27;;;2.17;;
19679;SDS011;9989;48.962;9.182;2023-02-01T04:00:28;5.40;;;2.40;;
19679;SDS011;9989;48.962;9.182;2023-02-01T04:02:54;6.33;;;2.50;;
19679;SDS011;9989;48.962;9.182;2023-02-01T04:05:20;6.80;;;2.73;;
19679;SDS011;9989;48.962;9.182;2023-02-01T04:07:46;6.20;;;2.80;;
19679;SDS011;9989;48.962;9.182;2023-02-01T04:10:12;5.80;;;2.60;;
19679;SDS011;9989;48.962;9.182;2023-02-01T04:12:39;6.03;;;2.70;;
19679;SDS011;9989;48.962;9.182;2023-02-01T04:15:05;6.00;;;2.83;;
19679;SDS011;9989;48.962;9.182;2023-02-01T04:17:32;5.53;;;2.50;;
19679;SDS011;9989;48.962;9.182;2023-02-01T04:19:57;5.60;;;2.30;;
19679;SDS011;9989;48.962;9.182;2023-02-01T04:22:23;5.53;;;2.63;;
19679;SDS011;9989;48.962;9.182;2023-02-01T04:24:48;6.30;;;2.53;;
19679;SDS011;9989;48.962;9.182;2023-02-01T04:27:14;6.07;;;2.50;;
19679;SDS011;9989;48.962;9.182;2023-02-01T04:29:40;5.97;;;2.70;;
19679;SDS011;9989;48.962;9.182;2023-02-01T04:32:06;5.80;;;2.50;;
19679;SDS011;9989;48.962;9.182;2023-02-01T04:34:32;5.80;;;2.60;;
19679;SDS011;9989;48.962;9.182;2023-02-01T04:36:58;9.07;;;3.03;;
19679;SDS011;9989;48.962;9.182;2023-02-01T04:39:24;6.83;;;2.93;;
19679;SDS011;9989;48.962;9.182;2023-02-01T04:41:49;6.60;;;2.80;;
19679;SDS011;9989;48.962;9.182;2023-02-01T04:44:15;7.23;;;2.97;;
19679;SDS011;9989;48.962;9.182;2023-02-01T04:46:42;8.03;;;2.80;;
19679;SDS011;9989;48.962;9.182;2023-02-01T04:49:09;6.30;;;2.70;;
19679;SDS011;9989;48.962;9.182;2023-02-01T04:51:36;4.83;;;2.40;;
19679;SDS011;9989;48.962;9.182;2023-02-01T04:54:02;6.73;;;2.80;;
19679;SDS011;9989;48.962;9.182;2023-02-01T04:56:28;5.60;;;2.30;;
19679;SDS011;9989;48.962;9.182;2023-02-01T04:58:54;8.00;;;3.03;;
19679;SDS011;9989;48.962;9.182;2023-02-01T05:01:20;6.20;;;2.53;;
19679;SDS011;9989;48.962;9.182;2023-02-01T05:03:47;7.17;;;2.47;;
19679;SDS011;9989;48.962;9.182;2023-02-01T05:06:12;6.57;;;2.63;;
19679;SDS011;9989;48.962;9.182;2023-02-01T05:08:38;5.83;;;2.50;;
19679;SDS011;9989;48.962;9.182;2023-02-01T05:11:04;8.63;;;2.90;;
19679;SDS011;9989;48.962;9.182;2023-02-01T05:13:30;5.57;;;2.17;;
19679;SDS011;9989;48.962;9.182;2023-02-01T05:16:14;6.03;;;2.83;;
19679;SDS011;9989;48.962;9.182;2023-02-01T05:18:40;6.63;;;2.50;;
19679;SDS011;9989;48.962;9.182;2023-02-01T05:21:05;5.27;;;2.43;;
19679;SDS011;9989;48.962;9.182;2023-02-01T05:23:31;6.37;;;2.53;;
19679;SDS011;9989;48.962;9.182;2023-02-01T05:26:00;7.10;;;2.50;;
19679;SDS011;9989;48.962;9.182;2023-02-01T05:28:27;7.35;;;3.05;;
19679;SDS011;9989;48.962;9.182;2023-02-01T05:30:53;6.97;;;2.83;;
19679;SDS011;9989;48.962;9.182;2023-02-01T05:33:19;6.07;;;2.80;;
19679;SDS011;9989;48.962;9.182;2023-02-01T05:35:45;6.20;;;3.10;;
19679;SDS011;9989;48.962;9.182;2023-02-01T05:38:10;6.70;;;3.20;;
19679;SDS011;9989;48.962;9.182;2023-02-01T05:40:36;5.87;;;2.67;;
19679;SDS011;9989;48.962;9.182;2023-02-01T05:43:02;6.93;;;3.07;;
19679;SDS011;9989;48.962;9.182;2023-02-01T05:45:27;7.27;;;2.70;;
19679;SDS011;9989;48.962;9.182;2023-02-01T05:47:53;7.40;;;3.10;;
19679;SDS011;9989;48.962;9.182;2023-02-01T05:50:18;6.77;;;2.90;;
19679;SDS011;9989;48.962;9.182;2023-02-01T05:52:44;10.17;;;4.00;;
19679;SDS011;9989;48.962;9.182;2023-02-01T05:55:10;5.97;;;3.20;;
19679;SDS011;9989;48.962;9.182;2023-02-01T05:57:35;9.33;;;2.90;;
19679;SDS011;9989;48.962;9.182;2023-02-01T06:00:03;5.57;;;2.47;;
19679;SDS011;9989;48.962;9.182;2023-02-01T06:02:29;7.00;;;2.23;;
19679;SDS011;9989;48.962;9.182;2023-02-01T06:04:54;7.53;;;2.67;;
19679;SDS011;9989;48.962;9.182;2023-02-01T06:07:20;6.80;;;2.60;;
19679;SDS011;9989;48.962;9.182;2023-02-01T06:09:46;8.60;;;2.60;;
19679;SDS011;9989;48.962;9.182;2023-02-01T06:12:12;6.20;;;2.40;;
19679;SDS011;9989;48.962;9.182;2023-02-01T06:14:38;5.40;;;2.73;;
19679;SDS011;9989;48.962;9.182;2023-02-01T06:17:04;8.57;;;2.80;;
19679;SDS011;9989;48.962;9.182;2023-02-01T06:19:31;6.07;;;2.40;;
19679;SDS011;9989;48.962;9.182;2023-02-01T06:21:56;6.80;;;3.20;;
19679;SDS011;9989;48.962;9.182;2023-02-01T06:24:22;6.03;;;3.07;;
19679;SDS011;9989;48.962;9.182;2023-02-01T06:26:47;7.73;;;3.20;;
19679;SDS011;9989;48.962;9.182;2023-02-01T06:29:13;8.33;;;3.20;;
19679;SDS011;9989;48.962;9.182;2023-02-01T06:31:40;9.23;;;3.77;;
19679;SDS011;9989;48.962;9.182;2023-02-01T06:34:07;8.90;;;4.20;;
19679;SDS011;9989;48.962;9.182;2023-02-01T06:36:33;10.33;;;4.10;;
19679;SDS011;9989;48.962;9.182;2023-02-01T06:38:59;12.00;;;4.17;;
19679;SDS011;9989;48.962;9.182;2023-02-01T06:41:24;11.60;;;4.60;;
19679;SDS011;9989;48.962;9.182;2023-02-01T06:43:50;9.67;;;4.70;;
19679;SDS011;9989;48.962;9.182;2023-02-01T06:46:16;10.27;;;4.43;;
19679;SDS011;9989;48.962;9.182;2023-02-01T06:48:42;12.33;;;5.40;;
19679;SDS011;9989;48.962;9.182;2023-02-01T06:51:27;16.20;;;9.10;;
19679;SDS011;9989;48.962;9.182;2023-02-01T06:53:55;11.37;;;4.50;;
19679;SDS011;9989;48.962;9.182;2023-02-01T06:56:22;11.43;;;5.33;;
19679;SDS011;9989;48.962;9.182;2023-02-01T06:58:48;13.00;;;5.37;;
19679;SDS011;9989;48.962;9.182;2023-02-01T07:01:14;10.63;;;5.10;;
19679;SDS011;9989;48.962;9.182;2023-02-01T07:03:40;10.67;;;5.10;;
19679;SDS011;9989;48.962;9.182;2023-02-01T07:06:06;11.57;;;5.47;;
19679;SDS011;9989;48.962;9.182;2023-02-01T07:08:33;10.10;;;5.23;;
19679;SDS011;9989;48.962;9.182;2023-02-01T07:11:03;14.60;;;6.67;;
19679;SDS011;9989;48.962;9.182;2023-02-01T07:13:30;17.37;;;6.20;;
19679;SDS011;9989;48.962;9.182;2023-02-01T07:16:03;11.63;;;5.33;;
19679;SDS011;9989;48.962;9.182;2023-02-01T07:18:30;11.33;;;5.53;;
19679;SDS011;9989;48.962;9.182;2023-02-01T07:20:56;11.43;;;5.43;;
19679;SDS011;9989;48.962;9.182;2023-02-01T07:23:22;18.53;;;6.57;;
19679;SDS011;9989;48.962;9.182;2023-02-01T07:25:48;14.87;;;6.03;;
19679;SDS011;9989;48.962;9.182;2023-02-01T07:28:14;11.70;;;5.90;;
19679;SDS011;9989;48.962;9.182;2023-02-01T07:30:39;15.93;;;6.10;;
19679;SDS011;9989;48.962;9.182;2023-02-01T07:33:06;18.30;;;7.17;;
19679;SDS011;9989;48.962;9.182;2023-02-01T07:35:32;11.53;;;6.13;;
19679;SDS011;9989;48.962;9.182;2023-02-01T07:37:57;13.13;;;6.77;;
19679;SDS011;9989;48.962;9.182;2023-02-01T07:40:23;13.87;;;6.57;;
19679;SDS011;9989;48.962;9.182;2023-02-01T07:42:54;13.23;;;6.50;;
19679;SDS011;9989;48.962;9.182;2023-02-01T07:45:20;13.37;;;6.87;;
19679;SDS011;9989;48.962;9.182;2023-02-01T07:47:46;13.70;;;6.80;;
19679;SDS011;9989;48.962;9.182;2023-02-01T07:50:12;14.10;;;6.40;;
19679;SDS011;9989;48.962;9.182;2023-02-01T07:52:37;17.13;;;7.57;;
19679;SDS011;9989;48.962;9.182;2023-02-01T07:55:03;19.70;;;7.33;;
19679;SDS011;9989;48.962;9.182;2023-02-01T07:57:29;13.23;;;6.87;;
19679;SDS011;9989;48.962;9.182;2023-02-01T07:59:54;19.40;;;6.70;;
19679;SDS011;9989;48.962;9.182;2023-02-01T08:02:39;13.73;;;6.17;;
19679;SDS011;9989;48.962;9.182;2023-02-01T08:05:04;17.70;;;6.43;;
19679;SDS011;9989;48.962;9.182;2023-02-01T08:07:30;13.97;;;6.63;;
19679;SDS011;9989;48.962;9.182;2023-02-01T08:09:56;14.23;;;6.83;;
19679;SDS011;9989;48.962;9.182;2023-02-01T08:12:21;18.50;;;6.23;;
19679;SDS011;9989;48.962;9.182;2023-02-01T08:14:47;16.90;;;6.20;;
19679;SDS011;9989;48.962;9.182;2023-02-01T08:17:13;17.53;;;6.40;;
19679;SDS011;9989;48.962;9.182;2023-02-01T08:19:38;14.63;;;6.27;;
19679;SDS011;9989;48.962;9.182;2023-02-01T08:22:04;14.47;;;5.97;;
19679;SDS011;9989;48.962;9.182;2023-02-01T08:24:32;14.87;;;5.73;;
19679;SDS011;9989;48.962;9.182;2023-02-01T08:26:58;13.40;;;5.97;;
19679;SDS011;9989;48.962;9.182;2023-02-01T08:29:26;12.03;;;5.93;;
19679;SDS011;9989;48.962;9.182;2023-02-01T08:31:51;14.53;;;6.43;;
19679;SDS011;9989;48.962;9.182;2023-02-01T08:34:19;17.43;;;5.90;;
19679;SDS011;9989;48.962;9.182;2023-02-01T08:36:44;12.27;;;5.90;;
19679;SDS011;9989;48.962;9.182;2023-02-01T08:39:10;13.40;;;5.37;;
19679;SDS011;9989;48.962;9.182;2023-02-01T08:41:36;11.70;;;5.27;;
19679;SDS011;9989;48.962;9.182;2023-02-01T08:44:02;15.37;;;5.60;;
19679;SDS011;9989;48.962;9.182;2023-02-01T08:46:29;16.57;;;6.03;;
19679;SDS011;9989;48.962;9.182;2023-02-01T08:48:55;14.60;;;6.00;;
19679;SDS011;9989;48.962;9.182;2023-02-01T08:51:21;12.13;;;6.00;;
19679;SDS011;9989;48.962;9.182;2023-02-01T08:53:47;13.23;;;5.53;;
19679;SDS011;9989;48.962;9.182;2023-02-01T08:56:15;20.60;;;5.83;;
19679;SDS011;9989;48.962;9.182;2023-02-01T08:58:42;19.63;;;5.97;;
19679;SDS011;9989;48.962;9.182;2023-02-01T09:01:08;12.77;;;5.43;;
19679;SDS011;9989;48.962;9.182;2023-02-01T09:03:37;12.73;;;5.40;;
19679;SDS011;9989;48.962;9.182;2023-02-01T09:06:03;15.07;;;5.40;;
19679;SDS011;9989;48.962;9.182;2023-02-01T09:08:30;13.10;;;5.37;;
19679;SDS011;9989;48.962;9.182;2023-02-01T09:11:00;16.97;;;5.70;;
19679;SDS011;9989;48.962;9.182;2023-02-01T09:13:27;15.83;;;5.60;;
19679;SDS011;9989;48.962;9.182;2023-02-01T09:15:53;13.73;;;4.27;;
19679;SDS011;9989;48.962;9.182;2023-02-01T09:18:19;14.27;;;4.80;;
19679;SDS011;9989;48.962;9.182;2023-02-01T09:20:45;14.93;;;5.47;;
19679;SDS011;9989;48.962;9.182;2023-02-01T09:23:10;11.63;;;4.33;;
19679;SDS011;9989;48.962;9.182;2023-02-01T09:25:38;11.90;;;4.33;;
19679;SDS011;9989;48.962;9.182;2023-02-01T09:28:05;11.73;;;4.63;;
19679;SDS011;9989;48.962;9.182;2023-02-01T09:30:33;13.90;;;4.40;;
19679;SDS011;9989;48.962;9.182;2023-02-01T09:33:00;13.27;;;3.83;;
19679;SDS011;9989;48.962;9.182;2023-02-01T09:35:28;12.90;;;5.17;;
19679;SDS011;9989;48.962;9.182;2023-02-01T09:37:53;12.77;;;4.73;;
19679;SDS011;9989;48.962;9.182;2023-02-01T09:40:19;11.50;;;5.50;;
19679;SDS011;9989;48.962;9.182;2023-02-01T09:48:12;15.80;;;4.30;;
19679;SDS011;9989;48.962;9.182;2023-02-01T09:50:42;21.00;;;4.50;;
19679;SDS011;9989;48.962;9.182;2023-02-01T09:55:49;16.23;;;4.47;;
19679;SDS011;9989;48.962;9.182;2023-02-01T09:58:25;12.97;;;4.30;;
19679;SDS011;9989;48.962;9.182;2023-02-01T10:00:58;20.40;;;4.30;;
19679;SDS011;9989;48.962;9.182;2023-02-01T10:03:32;11.93;;;4.17;;
19679;SDS011;9989;48.962;9.182;2023-02-01T10:11:18;14.13;;;3.50;;
19679;SDS011;9989;48.962;9.182;2023-02-01T10:14:33;20.27;;;5.03;;
19679;SDS011;9989;48.962;9.182;2023-02-01T10:19:39;19.33;;;4.77;;
19679;SDS011;9989;48.962;9.182;2023-02-01T10:22:24;15.97;;;4.23;;
19679;SDS011;9989;48.962;9.182;2023-02-01T10:25:08;14.43;;;3.60;;
19679;SDS011;9989;48.962;9.182;2023-02-01T10:27:42;15.40;;;3.90;;
19679;SDS011;9989;48.962;9.182;2023-02-01T10:32:38;13.30;;;4.00;;
19679;SDS011;9989;48.962;9.182;2023-02-01T10:35:52;17.23;;;3.87;;
19679;SDS011;9989;48.962;9.182;2023-02-01T10:37:58;15.37;;;3.50;;
19679;SDS011;9989;48.962;9.182;2023-02-01T10:40:26;16.93;;;4.20;;
19679;SDS011;9989;48.962;9.182;2023-02-01T10:42:53;14.60;;;4.30;;
19679;SDS011;9989;48.962;9.182;2023-02-01T10:45:22;11.23;;;3.20;;
19679;SDS011;9989;48.962;9.182;2023-02-01T10:47:52;13.47;;;3.53;;
19679;SDS011;9989;48.962;9.182;2023-02-01T10:53:05;13.27;;;3.67;;
19679;SDS011;9989;48.962;9.182;2023-02-01T10:55:38;15.20;;;3.80;;
19679;SDS011;9989;48.962;9.182;2023-02-01T10:58:28;13.20;;;3.90;;
19679;SDS011;9989;48.962;9.182;2023-02-01T11:01:00;17.33;;;4.43;;
19679;SDS011;9989;48.962;9.182;2023-02-01T11:03:34;11.60;;;3.57;;
19679;SDS011;9989;48.962;9.182;2023-02-01T11:06:32;12.67;;;4.77;;
19679;SDS011;9989;48.962;9.182;2023-02-01T11:11:35;19.00;;;4.00;;
19679;SDS011;9989;48.962;9.182;2023-02-01T11:14:20;12.27;;;4.13;;
19679;SDS011;9989;48.962;9.182;2023-02-01T11:16:58;15.60;;;3.67;;
19679;SDS011;9989;48.962;9.182;2023-02-01T11:19:46;13.93;;;3.80;;
19679;SDS011;9989;48.962;9.182;2023-02-01T11:22:20;17.73;;;4.47;;
19679;SDS011;9989;48.962;9.182;2023-02-01T11:24:46;13.43;;;3.47;;
19679;SDS011;9989;48.962;9.182;2023-02-01T11:27:22;10.07;;;3.13;;
19679;SDS011;9989;48.962;9.182;2023-02-01T11:29:50;12.67;;;3.80;;
19679;SDS011;9989;48.962;9.182;2023-02-01T11:32:19;12.70;;;3.53;;
19679;SDS011;9989;48.962;9.182;2023-02-01T11:37:25;14.00;;;3.87;;
19679;SDS011;9989;48.962;9.182;2023-02-01T11:40:03;13.17;;;4.33;;
19679;SDS011;9989;48.962;9.182;2023-02-01T11:43:00;12.83;;;3.70;;
19679;SDS011;9989;48.962;9.182;2023-02-01T11:45:40;11.53;;;3.73;;
19679;SDS011;9989;48.962;9.182;2023-02-01T11:48:10;14.57;;;3.77;;
19679;SDS011;9989;48.962;9.182;2023-02-01T11:50:49;11.03;;;3.03;;
19679;SDS011;9989;48.962;9.182;2023-02-01T11:53:46;14.90;;;3.47;;
19679;SDS011;9989;48.962;9.182;2023-02-01T11:56:37;15.47;;;3.50;;
19679;SDS011;9989;48.962;9.182;2023-02-01T12:04:59;13.43;;;4.30;;
19679;SDS011;9989;48.962;9.182;2023-02-01T12:13:23;9.53;;;3.20;;
19679;SDS011;9989;48.962;9.182;2023-02-01T12:21:43;12.97;;;4.10;;
19679;SDS011;9989;48.962;9.182;2023-02-01T12:29:33;13.37;;;3.73;;
19679;SDS011;9989;48.962;9.182;2023-02-01T12:32:32;15.27;;;3.60;;
19679;SDS011;9989;48.962;9.182;2023-02-01T12:41:48;15.50;;;3.83;;
19679;SDS011;9989;48.962;9.182;2023-02-01T12:47:15;9.57;;;2.80;;
19679;SDS011;9989;48.962;9.182;2023-02-01T12:50:06;15.17;;;4.10;;
19679;SDS011;9989;48.962;9.182;2023-02-01T12:52:48;10.97;;;3.20;;
19679;SDS011;9989;48.962;9.182;2023-02-01T12:55:23;14.63;;;4.20;;
19679;SDS011;9989;48.962;9.182;2023-02-01T12:58:07;8.80;;;2.97;;
19679;SDS011;9989;48.962;9.182;2023-02-01T13:00:46;12.63;;;3.03;;
19679;SDS011;9989;48.962;9.182;2023-02-01T13:06:12;12.77;;;2.80;;
19679;SDS011;9989;48.962;9.182;2023-02-01T13:08:48;11.77;;;3.20;;
19679;SDS011;9989;48.962;9.182;2023-02-01T13:11:31;8.90;;;3.30;;
19679;SDS011;9989;48.962;9.182;2023-02-01T13:16:48;9.33;;;3.50;;
19679;SDS011;9989;48.962;9.182;2023-02-01T13:19:17;17.90;;;3.80;;
19679;SDS011;9989;48.962;9.182;2023-02-01T13:21:47;13.60;;;4.60;;
19679;SDS011;9989;48.962;9.182;2023-02-01T13:27:26;16.27;;;4.57;;
19679;SDS011;9989;48.962;9.182;2023-02-01T13:41:08;19.73;;;3.90;;
19679;SDS011;9989;48.962;9.182;2023-02-01T13:43:58;17.10;;;4.20;;
19679;SDS011;9989;48.962;9.182;2023-02-01T13:46:30;14.77;;;4.00;;
19679;SDS011;9989;48.962;9.182;2023-02-01T13:49:05;12.57;;;3.70;;
19679;SDS011;9989;48.962;9.182;2023-02-01T13:51:40;16.53;;;4.10;;
19679;SDS011;9989;48.962;9.182;2023-02-01T13:56:57;17.53;;;4.37;;
19679;SDS011;9989;48.962;9.182;2023-02-01T14:13:23;15.90;;;4.20;;
19679;SDS011;9989;48.962;9.182;2023-02-01T14:23:41;16.67;;;4.40;;
19679;SDS011;9989;48.962;9.182;2023-02-01T14:26:10;24.13;;;5.07;;
19679;SDS011;9989;48.962;9.182;2023-02-01T14:28:40;13.30;;;3.20;;
19679;SDS011;9989;48.962;9.182;2023-02-01T14:31:26;12.37;;;3.57;;
19679;SDS011;9989;48.962;9.182;2023-02-01T14:34:02;14.07;;;4.03;;
19679;SDS011;9989;48.962;9.182;2023-02-01T14:36:40;13.77;;;4.47;;
19679;SDS011;9989;48.962;9.182;2023-02-01T14:41:53;16.50;;;4.03;;
19679;SDS011;9989;48.962;9.182;2023-02-01T14:44:39;14.47;;;4.00;;
19679;SDS011;9989;48.962;9.182;2023-02-01T14:49:47;15.57;;;3.77;;
19679;SDS011;9989;48.962;9.182;2023-02-01T14:52:45;11.80;;;3.63;;
19679;SDS011;9989;48.962;9.182;2023-02-01T14:57:46;10.20;;;3.27;;
19679;SDS011;9989;48.962;9.182;2023-02-01T15:02:43;13.13;;;3.67;;
19679;SDS011;9989;48.962;9.182;2023-02-01T15:05:24;10.40;;;3.50;;
19679;SDS011;9989;48.962;9.182;2023-02-01T15:07:56;14.20;;;4.67;;
19679;SDS011;9989;48.962;9.182;2023-02-01T15:10:43;13.77;;;3.97;;
19679;SDS011;9989;48.962;9.182;2023-02-01T15:13:47;12.23;;;3.60;;
19679;SDS011;9989;48.962;9.182;2023-02-01T15:16:11;14.47;;;4.20;;
19679;SDS011;9989;48.962;9.182;2023-02-01T15:18:38;12.57;;;3.60;;
19679;SDS011;9989;48.962;9.182;2023-02-01T15:21:05;14.10;;;4.53;;
19679;SDS011;9989;48.962;9.182;2023-02-01T15:23:31;14.33;;;3.47;;
19679;SDS011;9989;48.962;9.182;2023-02-01T15:25:57;11.33;;;3.77;;
19679;SDS011;9989;48.962;9.182;2023-02-01T15:28:24;14.23;;;4.30;;
19679;SDS011;9989;48.962;9.182;2023-02-01T15:30:58;16.57;;;3.77;;
19679;SDS011;9989;48.962;9.182;2023-02-01T15:33:28;13.27;;;3.80;;
19679;SDS011;9989;48.962;9.182;2023-02-01T15:38:31;14.43;;;3.90;;
19679;SDS011;9989;48.962;9.182;2023-02-01T15:43:29;13.57;;;4.30;;
19679;SDS011;9989;48.962;9.182;2023-02-01T15:46:00;12.03;;;3.80;;
19679;SDS011;9989;48.962;9.182;2023-02-01T15:48:31;13.50;;;4.10;;
19679;SDS011;9989;48.962;9.182;2023-02-01T15:51:00;15.70;;;4.43;;
19679;SDS011;9989;48.962;9.182;2023-02-01T15:53:29;13.87;;;3.50;;
19679;SDS011;9989;48.962;9.182;2023-02-01T15:55:58;18.27;;;5.03;;
19679;SDS011;9989;48.962;9.182;2023-02-01T15:58:30;10.60;;;3.93;;
19679;SDS011;9989;48.962;9.182;2023-02-01T16:00:58;15.43;;;4.23;;
19679;SDS011;9989;48.962;9.182;2023-02-01T16:06:18;15.77;;;4.37;;
19679;SDS011;9989;48.962;9.182;2023-02-01T16:11:31;13.47;;;3.90;;
19679;SDS011;9989;48.962;9.182;2023-02-01T16:14:04;11.80;;;3.60;;
19679;SDS011;9989;48.962;9.182;2023-02-01T16:16:30;13.43;;;4.00;;
19679;SDS011;9989;48.962;9.182;2023-02-01T16:18:55;10.80;;;3.70;;
19679;SDS011;9989;48.962;9.182;2023-02-01T16:21:21;11.43;;;3.23;;
19679;SDS011;9989;48.962;9.182;2023-02-01T16:23:48;15.07;;;3.90;;
19679;SDS011;9989;48.962;9.182;2023-02-01T16:26:18;14.60;;;5.47;;
19679;SDS011;9989;48.962;9.182;2023-02-01T16:28:44;12.43;;;4.17;;
19679;SDS011;9989;48.962;9.182;2023-02-01T16:31:11;15.17;;;4.00;;
19679;SDS011;9989;48.962;9.182;2023-02-01T16:33:45;11.90;;;4.37;;
19679;SDS011;9989;48.962;9.182;2023-02-01T16:36:12;16.37;;;5.00;;
19679;SDS011;9989;48.962;9.182;2023-02-01T16:38:38;17.83;;;5.23;;
19679;SDS011;9989;48.962;9.182;2023-02-01T16:41:04;13.47;;;3.90;;
19679;SDS011;9989;48.962;9.182;2023-02-01T16:43:30;16.33;;;4.53;;
19679;SDS011;9989;48.962;9.182;2023-02-01T16:45:58;12.50;;;3.70;;
19679;SDS011;9989;48.962;9.182;2023-02-01T16:48:35;11.80;;;3.80;;
19679;SDS011;9989;48.962;9.182;2023-02-01T16:51:03;15.30;;;4.03;;
19679;SDS011;9989;48.962;9.182;2023-02-01T16:53:33;17.17;;;4.57;;
19679;SDS011;9989;48.962;9.182;2023-02-01T16:55:59;12.93;;;4.00;;
19679;SDS011;9989;48.962;9.182;2023-02-01T16:58:25;19.20;;;4.40;;
19679;SDS011;9989;48.962;9.182;2023-02-01T17:00:51;13.37;;;4.03;;
19679;SDS011;9989;48.962;9.182;2023-02-01T17:03:18;12.93;;;4.83;;
19679;SDS011;9989;48.962;9.182;2023-02-01T17:05:46;11.37;;;3.53;;
19679;SDS011;9989;48.962;9.182;2023-02-01T17:08:16;11.10;;;3.37;;
19679;SDS011;9989;48.962;9.182;2023-02-01T17:10:56;14.57;;;4.30;;
19679;SDS011;9989;48.962;9.182;2023-02-01T17:13:22;10.93;;;3.57;;
19679;SDS011;9989;48.962;9.182;2023-02-01T17:15:49;14.90;;;3.63;;
19679;SDS011;9989;48.962;9.182;2023-02-01T17:18:36;12.03;;;3.33;;
19679;SDS011;9989;48.962;9.182;2023-02-01T17:21:02;12.83;;;3.57;;
19679;SDS011;9989;48.962;9.182;2023-02-01T17:23:29;17.67;;;3.63;;
19679;SDS011;9989;48.962;9.182;2023-02-01T17:25:55;16.93;;;4.73;;
19679;SDS011;9989;48.962;9.182;2023-02-01T17:28:21;12.63;;;4.47;;
19679;SDS011;9989;48.962;9.182;2023-02-01T17:30:47;9.53;;;3.43;;
19679;SDS011;9989;48.962;9.182;2023-02-01T17:33:24;20.33;;;5.63;;
19679;SDS011;9989;48.962;9.182;2023-02-01T17:35:55;10.60;;;4.13;;